Terminal Aerodrome Forecast
Issued by NWS Charleston, SC

Home | Current Version | Previous Version | Text Only | Print | Product List | Glossary On
Versions: 1 2 3 4 5 6 7 8 9 10 11 12 13 14 15 16 17
000
FTUS42 KCHS 301400 AAA
TAFCHS
TAF AMD
KCHS 301456Z 3015/3112 09007KT P6SM VCSH SCT030 BKN090
     FM301800 12008KT P6SM VCSH SCT035 SCT050 BKN100
     FM310100 06003KT P6SM SCT030 SCT100=

USA.gov is the U.S. government's official web portal to all federal, state and local government web resources and services.